sensor_id;sensor_type;location;lat;lon;timestamp;P1;durP1;ratioP1;P2;durP2;ratioP2
78858;SDS011;68210;52.032;4.634;2024-02-15T00:00:11;10.55;;;3.90;;
78858;SDS011;68210;52.032;4.634;2024-02-15T00:02:12;13.73;;;4.75;;
78858;SDS011;68210;52.032;4.634;2024-02-15T00:04:13;9.80;;;3.65;;
78858;SDS011;68210;52.032;4.634;2024-02-15T00:06:13;9.43;;;3.25;;
78858;SDS011;68210;52.032;4.634;2024-02-15T00:08:13;11.05;;;4.05;;
78858;SDS011;68210;52.032;4.634;2024-02-15T00:10:16;7.88;;;3.25;;
78858;SDS011;68210;52.032;4.634;2024-02-15T00:12:17;12.05;;;3.25;;
78858;SDS011;68210;52.032;4.634;2024-02-15T00:14:17;13.45;;;3.28;;
78858;SDS011;68210;52.032;4.634;2024-02-15T00:16:18;8.77;;;2.50;;
78858;SDS011;68210;52.032;4.634;2024-02-15T00:18:19;10.90;;;3.20;;
78858;SDS011;68210;52.032;4.634;2024-02-15T00:20:23;10.02;;;2.80;;
78858;SDS011;68210;52.032;4.634;2024-02-15T00:22:24;6.68;;;2.72;;
78858;SDS011;68210;52.032;4.634;2024-02-15T00:24:24;8.48;;;2.70;;
78858;SDS011;68210;52.032;4.634;2024-02-15T00:26:25;12.45;;;3.67;;
78858;SDS011;68210;52.032;4.634;2024-02-15T00:28:25;12.63;;;3.17;;
78858;SDS011;68210;52.032;4.634;2024-02-15T00:30:28;7.68;;;3.13;;
78858;SDS011;68210;52.032;4.634;2024-02-15T00:32:28;7.55;;;2.90;;
78858;SDS011;68210;52.032;4.634;2024-02-15T00:34:29;11.07;;;3.53;;
78858;SDS011;68210;52.032;4.634;2024-02-15T00:36:31;9.00;;;3.25;;
78858;SDS011;68210;52.032;4.634;2024-02-15T00:38:33;12.27;;;3.95;;
78858;SDS011;68210;52.032;4.634;2024-02-15T00:40:35;12.75;;;3.83;;
78858;SDS011;68210;52.032;4.634;2024-02-15T00:42:40;10.13;;;3.90;;
78858;SDS011;68210;52.032;4.634;2024-02-15T00:44:40;10.45;;;4.45;;
78858;SDS011;68210;52.032;4.634;2024-02-15T00:46:40;8.73;;;4.57;;
78858;SDS011;68210;52.032;4.634;2024-02-15T00:48:41;9.88;;;4.55;;
78858;SDS011;68210;52.032;4.634;2024-02-15T00:50:41;14.57;;;4.82;;
78858;SDS011;68210;52.032;4.634;2024-02-15T00:52:42;11.40;;;5.03;;
78858;SDS011;68210;52.032;4.634;2024-02-15T00:54:42;14.15;;;4.90;;
78858;SDS011;68210;52.032;4.634;2024-02-15T00:56:42;11.77;;;4.85;;
78858;SDS011;68210;52.032;4.634;2024-02-15T00:58:43;11.50;;;4.88;;
78858;SDS011;68210;52.032;4.634;2024-02-15T01:00:43;13.70;;;4.95;;
78858;SDS011;68210;52.032;4.634;2024-02-15T01:02:44;9.30;;;4.82;;
78858;SDS011;68210;52.032;4.634;2024-02-15T01:04:44;12.73;;;5.10;;
78858;SDS011;68210;52.032;4.634;2024-02-15T01:06:48;10.90;;;4.53;;
78858;SDS011;68210;52.032;4.634;2024-02-15T01:08:48;11.20;;;4.13;;
78858;SDS011;68210;52.032;4.634;2024-02-15T01:10:49;18.27;;;4.63;;
78858;SDS011;68210;52.032;4.634;2024-02-15T01:12:50;12.82;;;5.15;;
78858;SDS011;68210;52.032;4.634;2024-02-15T01:14:50;14.52;;;5.00;;
78858;SDS011;68210;52.032;4.634;2024-02-15T01:16:51;12.65;;;4.95;;
78858;SDS011;68210;52.032;4.634;2024-02-15T01:18:51;8.70;;;4.75;;
78858;SDS011;68210;52.032;4.634;2024-02-15T01:20:52;10.02;;;4.80;;
78858;SDS011;68210;52.032;4.634;2024-02-15T01:22:52;12.95;;;5.13;;
78858;SDS011;68210;52.032;4.634;2024-02-15T01:24:53;12.70;;;5.13;;
78858;SDS011;68210;52.032;4.634;2024-02-15T01:26:53;14.48;;;5.75;;
78858;SDS011;68210;52.032;4.634;2024-02-15T01:28:54;10.27;;;4.85;;
78858;SDS011;68210;52.032;4.634;2024-02-15T01:30:55;12.18;;;5.57;;
78858;SDS011;68210;52.032;4.634;2024-02-15T01:32:57;10.15;;;4.50;;
78858;SDS011;68210;52.032;4.634;2024-02-15T01:34:58;13.88;;;4.75;;
78858;SDS011;68210;52.032;4.634;2024-02-15T01:36:58;13.13;;;5.10;;
78858;SDS011;68210;52.032;4.634;2024-02-15T01:38:58;13.23;;;4.68;;
78858;SDS011;68210;52.032;4.634;2024-02-15T01:40:59;15.35;;;4.97;;
78858;SDS011;68210;52.032;4.634;2024-02-15T01:42:59;10.55;;;4.53;;
78858;SDS011;68210;52.032;4.634;2024-02-15T01:45:00;20.48;;;5.05;;
78858;SDS011;68210;52.032;4.634;2024-02-15T01:47:02;11.95;;;4.55;;
78858;SDS011;68210;52.032;4.634;2024-02-15T01:49:04;10.95;;;4.53;;
78858;SDS011;68210;52.032;4.634;2024-02-15T01:51:07;13.35;;;5.35;;
78858;SDS011;68210;52.032;4.634;2024-02-15T01:53:10;9.43;;;4.90;;
78858;SDS011;68210;52.032;4.634;2024-02-15T01:55:11;12.20;;;4.70;;
78858;SDS011;68210;52.032;4.634;2024-02-15T01:57:12;13.23;;;4.40;;
78858;SDS011;68210;52.032;4.634;2024-02-15T01:59:14;11.00;;;4.18;;
78858;SDS011;68210;52.032;4.634;2024-02-15T02:01:15;13.52;;;5.30;;
78858;SDS011;68210;52.032;4.634;2024-02-15T02:03:16;8.63;;;4.38;;
78858;SDS011;68210;52.032;4.634;2024-02-15T02:05:17;11.27;;;4.28;;
78858;SDS011;68210;52.032;4.634;2024-02-15T02:07:17;11.82;;;5.32;;
78858;SDS011;68210;52.032;4.634;2024-02-15T02:09:19;12.50;;;4.57;;
78858;SDS011;68210;52.032;4.634;2024-02-15T02:11:19;15.05;;;4.30;;
78858;SDS011;68210;52.032;4.634;2024-02-15T02:13:20;13.45;;;4.95;;
78858;SDS011;68210;52.032;4.634;2024-02-15T02:15:20;10.70;;;4.57;;
78858;SDS011;68210;52.032;4.634;2024-02-15T02:17:20;23.85;;;5.95;;
78858;SDS011;68210;52.032;4.634;2024-02-15T02:19:21;14.25;;;5.10;;
78858;SDS011;68210;52.032;4.634;2024-02-15T02:21:22;13.85;;;3.88;;
78858;SDS011;68210;52.032;4.634;2024-02-15T02:25:26;11.90;;;4.95;;
78858;SDS011;68210;52.032;4.634;2024-02-15T02:27:26;13.57;;;4.25;;
78858;SDS011;68210;52.032;4.634;2024-02-15T02:29:27;9.05;;;4.03;;
78858;SDS011;68210;52.032;4.634;2024-02-15T02:31:34;11.88;;;4.28;;
78858;SDS011;68210;52.032;4.634;2024-02-15T02:33:35;9.60;;;3.80;;
78858;SDS011;68210;52.032;4.634;2024-02-15T02:35:35;10.63;;;4.45;;
78858;SDS011;68210;52.032;4.634;2024-02-15T02:37:35;12.48;;;4.03;;
78858;SDS011;68210;52.032;4.634;2024-02-15T02:39:36;12.57;;;3.95;;
78858;SDS011;68210;52.032;4.634;2024-02-15T02:41:37;12.23;;;4.32;;
78858;SDS011;68210;52.032;4.634;2024-02-15T02:43:37;11.05;;;3.92;;
78858;SDS011;68210;52.032;4.634;2024-02-15T02:45:41;10.32;;;4.07;;
78858;SDS011;68210;52.032;4.634;2024-02-15T02:47:43;10.77;;;4.18;;
78858;SDS011;68210;52.032;4.634;2024-02-15T02:49:43;12.30;;;3.78;;
78858;SDS011;68210;52.032;4.634;2024-02-15T02:51:43;10.23;;;3.42;;
78858;SDS011;68210;52.032;4.634;2024-02-15T02:53:44;10.88;;;3.75;;
78858;SDS011;68210;52.032;4.634;2024-02-15T02:55:45;9.00;;;3.97;;
78858;SDS011;68210;52.032;4.634;2024-02-15T02:57:45;11.05;;;3.50;;
78858;SDS011;68210;52.032;4.634;2024-02-15T02:59:46;12.40;;;4.00;;
78858;SDS011;68210;52.032;4.634;2024-02-15T03:01:47;7.05;;;3.67;;
78858;SDS011;68210;52.032;4.634;2024-02-15T03:03:48;5.88;;;3.22;;
78858;SDS011;68210;52.032;4.634;2024-02-15T03:05:49;12.30;;;3.83;;
78858;SDS011;68210;52.032;4.634;2024-02-15T03:07:49;9.18;;;3.60;;
78858;SDS011;68210;52.032;4.634;2024-02-15T03:09:51;7.57;;;2.97;;
78858;SDS011;68210;52.032;4.634;2024-02-15T03:11:52;8.82;;;3.22;;
78858;SDS011;68210;52.032;4.634;2024-02-15T03:13:52;11.77;;;3.63;;
78858;SDS011;68210;52.032;4.634;2024-02-15T03:15:53;10.50;;;3.40;;
78858;SDS011;68210;52.032;4.634;2024-02-15T03:17:53;10.13;;;3.72;;
78858;SDS011;68210;52.032;4.634;2024-02-15T03:19:54;11.18;;;3.47;;
78858;SDS011;68210;52.032;4.634;2024-02-15T03:21:55;9.48;;;4.05;;
78858;SDS011;68210;52.032;4.634;2024-02-15T03:23:56;6.10;;;3.67;;
78858;SDS011;68210;52.032;4.634;2024-02-15T03:25:56;12.70;;;4.10;;
78858;SDS011;68210;52.032;4.634;2024-02-15T03:27:58;10.57;;;3.53;;
78858;SDS011;68210;52.032;4.634;2024-02-15T03:29:59;9.90;;;3.28;;
78858;SDS011;68210;52.032;4.634;2024-02-15T03:32:00;11.45;;;4.00;;
78858;SDS011;68210;52.032;4.634;2024-02-15T03:34:00;10.45;;;3.65;;
78858;SDS011;68210;52.032;4.634;2024-02-15T03:36:01;11.15;;;3.75;;
78858;SDS011;68210;52.032;4.634;2024-02-15T03:38:01;10.60;;;4.20;;
78858;SDS011;68210;52.032;4.634;2024-02-15T03:40:01;10.90;;;4.32;;
78858;SDS011;68210;52.032;4.634;2024-02-15T03:42:04;10.50;;;4.60;;
78858;SDS011;68210;52.032;4.634;2024-02-15T03:44:04;11.98;;;5.07;;
78858;SDS011;68210;52.032;4.634;2024-02-15T03:46:04;15.23;;;4.57;;
78858;SDS011;68210;52.032;4.634;2024-02-15T03:48:05;15.23;;;5.57;;
78858;SDS011;68210;52.032;4.634;2024-02-15T03:50:07;15.25;;;6.03;;
78858;SDS011;68210;52.032;4.634;2024-02-15T03:52:11;11.68;;;5.47;;
78858;SDS011;68210;52.032;4.634;2024-02-15T03:54:12;14.52;;;5.43;;
78858;SDS011;68210;52.032;4.634;2024-02-15T03:56:12;14.75;;;5.63;;
78858;SDS011;68210;52.032;4.634;2024-02-15T03:58:13;11.60;;;5.90;;
78858;SDS011;68210;52.032;4.634;2024-02-15T04:00:15;11.57;;;5.93;;
78858;SDS011;68210;52.032;4.634;2024-02-15T04:02:15;15.80;;;6.32;;
78858;SDS011;68210;52.032;4.634;2024-02-15T04:04:16;12.50;;;5.63;;
78858;SDS011;68210;52.032;4.634;2024-02-15T04:06:16;15.32;;;6.88;;
78858;SDS011;68210;52.032;4.634;2024-02-15T04:08:16;16.55;;;7.47;;
78858;SDS011;68210;52.032;4.634;2024-02-15T04:10:19;14.48;;;6.93;;
78858;SDS011;68210;52.032;4.634;2024-02-15T04:12:19;9.65;;;6.00;;
78858;SDS011;68210;52.032;4.634;2024-02-15T04:14:20;19.05;;;7.35;;
78858;SDS011;68210;52.032;4.634;2024-02-15T04:16:20;13.02;;;7.43;;
78858;SDS011;68210;52.032;4.634;2024-02-15T04:18:20;14.25;;;7.22;;
78858;SDS011;68210;52.032;4.634;2024-02-15T04:20:22;15.40;;;6.70;;
78858;SDS011;68210;52.032;4.634;2024-02-15T04:22:22;21.55;;;7.80;;
78858;SDS011;68210;52.032;4.634;2024-02-15T04:24:23;11.80;;;6.53;;
78858;SDS011;68210;52.032;4.634;2024-02-15T04:26:24;11.18;;;6.75;;
78858;SDS011;68210;52.032;4.634;2024-02-15T04:28:26;10.35;;;6.88;;
78858;SDS011;68210;52.032;4.634;2024-02-15T04:30:27;15.57;;;6.75;;
78858;SDS011;68210;52.032;4.634;2024-02-15T04:32:27;13.15;;;6.05;;
78858;SDS011;68210;52.032;4.634;2024-02-15T04:34:29;12.40;;;7.18;;
78858;SDS011;68210;52.032;4.634;2024-02-15T04:36:30;11.65;;;6.50;;
78858;SDS011;68210;52.032;4.634;2024-02-15T04:38:34;14.18;;;7.35;;
78858;SDS011;68210;52.032;4.634;2024-02-15T04:40:35;11.57;;;6.57;;
78858;SDS011;68210;52.032;4.634;2024-02-15T04:42:38;14.60;;;7.07;;
78858;SDS011;68210;52.032;4.634;2024-02-15T04:44:39;14.82;;;7.90;;
78858;SDS011;68210;52.032;4.634;2024-02-15T04:46:40;15.45;;;6.75;;
78858;SDS011;68210;52.032;4.634;2024-02-15T04:48:42;14.55;;;7.68;;
78858;SDS011;68210;52.032;4.634;2024-02-15T04:50:42;12.40;;;7.80;;
78858;SDS011;68210;52.032;4.634;2024-02-15T04:52:43;14.98;;;7.97;;
78858;SDS011;68210;52.032;4.634;2024-02-15T04:54:45;14.63;;;8.02;;
78858;SDS011;68210;52.032;4.634;2024-02-15T04:56:45;13.68;;;8.27;;
78858;SDS011;68210;52.032;4.634;2024-02-15T04:58:46;15.10;;;8.57;;
78858;SDS011;68210;52.032;4.634;2024-02-15T05:00:47;15.90;;;8.88;;
78858;SDS011;68210;52.032;4.634;2024-02-15T05:02:52;14.30;;;9.38;;
78858;SDS011;68210;52.032;4.634;2024-02-15T05:04:53;19.27;;;9.40;;
78858;SDS011;68210;52.032;4.634;2024-02-15T05:06:56;19.08;;;9.65;;
78858;SDS011;68210;52.032;4.634;2024-02-15T05:08:56;16.23;;;9.40;;
78858;SDS011;68210;52.032;4.634;2024-02-15T05:10:57;17.20;;;8.82;;
78858;SDS011;68210;52.032;4.634;2024-02-15T05:12:58;21.98;;;8.90;;
78858;SDS011;68210;52.032;4.634;2024-02-15T05:15:01;18.55;;;8.63;;
78858;SDS011;68210;52.032;4.634;2024-02-15T05:17:02;19.60;;;9.27;;
78858;SDS011;68210;52.032;4.634;2024-02-15T05:19:02;16.10;;;9.00;;
78858;SDS011;68210;52.032;4.634;2024-02-15T05:21:03;19.23;;;9.50;;
78858;SDS011;68210;52.032;4.634;2024-02-15T05:23:04;15.88;;;8.38;;
78858;SDS011;68210;52.032;4.634;2024-02-15T05:25:05;15.35;;;8.38;;
78858;SDS011;68210;52.032;4.634;2024-02-15T05:27:07;18.27;;;8.10;;
78858;SDS011;68210;52.032;4.634;2024-02-15T05:29:09;16.33;;;8.30;;
78858;SDS011;68210;52.032;4.634;2024-02-15T05:33:17;16.15;;;8.77;;
78858;SDS011;68210;52.032;4.634;2024-02-15T05:35:17;20.13;;;8.73;;
78858;SDS011;68210;52.032;4.634;2024-02-15T05:37:18;16.38;;;9.23;;
78858;SDS011;68210;52.032;4.634;2024-02-15T05:39:18;15.95;;;7.75;;
78858;SDS011;68210;52.032;4.634;2024-02-15T05:41:22;15.65;;;7.13;;
78858;SDS011;68210;52.032;4.634;2024-02-15T05:43:22;15.57;;;7.68;;
78858;SDS011;68210;52.032;4.634;2024-02-15T05:47:29;19.35;;;7.93;;
78858;SDS011;68210;52.032;4.634;2024-02-15T05:49:30;16.40;;;8.05;;
78858;SDS011;68210;52.032;4.634;2024-02-15T05:51:30;17.45;;;8.90;;
78858;SDS011;68210;52.032;4.634;2024-02-15T05:53:31;16.80;;;8.15;;
78858;SDS011;68210;52.032;4.634;2024-02-15T05:55:38;20.05;;;9.05;;
78858;SDS011;68210;52.032;4.634;2024-02-15T05:57:41;13.57;;;8.88;;
78858;SDS011;68210;52.032;4.634;2024-02-15T05:59:41;14.63;;;8.52;;
78858;SDS011;68210;52.032;4.634;2024-02-15T06:01:42;14.98;;;8.18;;
78858;SDS011;68210;52.032;4.634;2024-02-15T06:03:43;14.48;;;7.30;;
78858;SDS011;68210;52.032;4.634;2024-02-15T06:05:46;14.82;;;8.50;;
78858;SDS011;68210;52.032;4.634;2024-02-15T06:07:46;14.55;;;9.05;;
78858;SDS011;68210;52.032;4.634;2024-02-15T06:09:47;17.60;;;8.77;;
78858;SDS011;68210;52.032;4.634;2024-02-15T06:11:47;16.25;;;8.73;;
78858;SDS011;68210;52.032;4.634;2024-02-15T06:13:48;17.88;;;8.82;;
78858;SDS011;68210;52.032;4.634;2024-02-15T06:15:48;15.35;;;9.23;;
78858;SDS011;68210;52.032;4.634;2024-02-15T06:17:52;14.38;;;8.02;;
78858;SDS011;68210;52.032;4.634;2024-02-15T06:19:53;17.80;;;8.18;;
78858;SDS011;68210;52.032;4.634;2024-02-15T06:21:55;13.85;;;7.75;;
78858;SDS011;68210;52.032;4.634;2024-02-15T06:23:56;12.50;;;7.78;;
78858;SDS011;68210;52.032;4.634;2024-02-15T06:25:56;11.63;;;7.75;;
78858;SDS011;68210;52.032;4.634;2024-02-15T06:28:01;12.68;;;7.38;;
78858;SDS011;68210;52.032;4.634;2024-02-15T06:30:13;15.30;;;7.20;;
78858;SDS011;68210;52.032;4.634;2024-02-15T06:32:32;14.05;;;7.15;;
78858;SDS011;68210;52.032;4.634;2024-02-15T06:34:50;8.63;;;5.88;;
78858;SDS011;68210;52.032;4.634;2024-02-15T06:37:09;10.75;;;5.90;;
78858;SDS011;68210;52.032;4.634;2024-02-15T06:39:28;10.55;;;7.60;;
78858;SDS011;68210;52.032;4.634;2024-02-15T06:41:46;13.20;;;7.00;;
78858;SDS011;68210;52.032;4.634;2024-02-15T06:43:47;12.13;;;7.55;;
78858;SDS011;68210;52.032;4.634;2024-02-15T06:45:47;11.40;;;7.97;;
78858;SDS011;68210;52.032;4.634;2024-02-15T06:47:51;14.35;;;7.40;;
78858;SDS011;68210;52.032;4.634;2024-02-15T06:49:51;11.48;;;6.90;;
78858;SDS011;68210;52.032;4.634;2024-02-15T06:51:54;12.70;;;6.75;;
78858;SDS011;68210;52.032;4.634;2024-02-15T06:53:54;11.10;;;6.68;;
78858;SDS011;68210;52.032;4.634;2024-02-15T06:55:56;12.48;;;6.55;;
78858;SDS011;68210;52.032;4.634;2024-02-15T06:57:56;8.63;;;6.47;;
78858;SDS011;68210;52.032;4.634;2024-02-15T06:59:57;11.60;;;6.45;;
78858;SDS011;68210;52.032;4.634;2024-02-15T07:01:57;10.50;;;6.10;;
78858;SDS011;68210;52.032;4.634;2024-02-15T07:04:01;8.70;;;6.07;;
78858;SDS011;68210;52.032;4.634;2024-02-15T07:06:03;9.10;;;5.38;;
78858;SDS011;68210;52.032;4.634;2024-02-15T07:08:04;10.98;;;6.93;;
78858;SDS011;68210;52.032;4.634;2024-02-15T07:10:06;11.68;;;6.93;;
78858;SDS011;68210;52.032;4.634;2024-02-15T07:12:09;11.85;;;6.70;;
78858;SDS011;68210;52.032;4.634;2024-02-15T07:14:09;15.25;;;6.53;;
78858;SDS011;68210;52.032;4.634;2024-02-15T07:16:10;10.95;;;6.47;;
78858;SDS011;68210;52.032;4.634;2024-02-15T07:18:12;11.80;;;6.45;;
78858;SDS011;68210;52.032;4.634;2024-02-15T07:20:16;14.55;;;6.40;;
78858;SDS011;68210;52.032;4.634;2024-02-15T07:22:17;13.30;;;6.60;;
78858;SDS011;68210;52.032;4.634;2024-02-15T07:24:17;13.02;;;8.13;;
78858;SDS011;68210;52.032;4.634;2024-02-15T07:26:19;12.23;;;6.60;;
78858;SDS011;68210;52.032;4.634;2024-02-15T07:28:20;13.48;;;6.40;;
78858;SDS011;68210;52.032;4.634;2024-02-15T07:30:21;12.23;;;7.53;;
78858;SDS011;68210;52.032;4.634;2024-02-15T07:32:22;11.40;;;6.30;;
78858;SDS011;68210;52.032;4.634;2024-02-15T07:34:23;13.30;;;6.78;;
78858;SDS011;68210;52.032;4.634;2024-02-15T07:36:23;12.65;;;6.20;;
78858;SDS011;68210;52.032;4.634;2024-02-15T07:38:24;14.65;;;6.35;;
78858;SDS011;68210;52.032;4.634;2024-02-15T07:40:25;13.75;;;6.30;;
78858;SDS011;68210;52.032;4.634;2024-02-15T07:46:30;15.43;;;7.90;;
78858;SDS011;68210;52.032;4.634;2024-02-15T07:48:30;16.20;;;7.97;;
78858;SDS011;68210;52.032;4.634;2024-02-15T07:50:31;16.63;;;8.55;;
78858;SDS011;68210;52.032;4.634;2024-02-15T07:52:32;15.95;;;8.20;;
78858;SDS011;68210;52.032;4.634;2024-02-15T07:54:33;18.75;;;9.35;;
78858;SDS011;68210;52.032;4.634;2024-02-15T07:56:33;11.23;;;6.47;;
78858;SDS011;68210;52.032;4.634;2024-02-15T07:58:37;14.50;;;7.72;;
78858;SDS011;68210;52.032;4.634;2024-02-15T08:00:39;17.83;;;9.75;;
78858;SDS011;68210;52.032;4.634;2024-02-15T08:02:39;14.57;;;7.60;;
78858;SDS011;68210;52.032;4.634;2024-02-15T08:04:43;13.27;;;7.22;;
78858;SDS011;68210;52.032;4.634;2024-02-15T08:06:44;15.02;;;8.45;;
78858;SDS011;68210;52.032;4.634;2024-02-15T08:08:46;11.50;;;7.10;;
78858;SDS011;68210;52.032;4.634;2024-02-15T08:10:47;14.43;;;7.25;;
78858;SDS011;68210;52.032;4.634;2024-02-15T08:12:49;17.23;;;8.23;;
78858;SDS011;68210;52.032;4.634;2024-02-15T08:14:52;14.00;;;8.23;;
78858;SDS011;68210;52.032;4.634;2024-02-15T08:16:52;13.60;;;6.82;;
78858;SDS011;68210;52.032;4.634;2024-02-15T08:18:53;12.20;;;7.68;;
78858;SDS011;68210;52.032;4.634;2024-02-15T08:20:57;13.23;;;7.25;;
78858;SDS011;68210;52.032;4.634;2024-02-15T08:22:57;15.27;;;8.48;;
78858;SDS011;68210;52.032;4.634;2024-02-15T08:24:59;14.98;;;8.23;;
78858;SDS011;68210;52.032;4.634;2024-02-15T08:26:59;16.55;;;8.45;;
78858;SDS011;68210;52.032;4.634;2024-02-15T08:29:00;14.27;;;7.10;;
78858;SDS011;68210;52.032;4.634;2024-02-15T08:31:03;13.82;;;6.50;;
78858;SDS011;68210;52.032;4.634;2024-02-15T08:33:04;15.18;;;7.60;;
78858;SDS011;68210;52.032;4.634;2024-02-15T08:35:05;16.40;;;7.85;;
78858;SDS011;68210;52.032;4.634;2024-02-15T08:37:07;11.35;;;6.90;;
78858;SDS011;68210;52.032;4.634;2024-02-15T08:39:08;10.57;;;6.65;;
78858;SDS011;68210;52.032;4.634;2024-02-15T08:41:12;15.93;;;7.45;;
78858;SDS011;68210;52.032;4.634;2024-02-15T08:43:12;15.25;;;6.68;;
78858;SDS011;68210;52.032;4.634;2024-02-15T08:45:14;11.90;;;7.07;;
78858;SDS011;68210;52.032;4.634;2024-02-15T08:47:15;10.50;;;6.53;;
78858;SDS011;68210;52.032;4.634;2024-02-15T08:49:15;12.35;;;7.10;;
78858;SDS011;68210;52.032;4.634;2024-02-15T08:51:15;13.30;;;6.95;;
78858;SDS011;68210;52.032;4.634;2024-02-15T08:53:16;13.80;;;7.72;;
78858;SDS011;68210;52.032;4.634;2024-02-15T08:55:19;13.30;;;6.93;;
78858;SDS011;68210;52.032;4.634;2024-02-15T08:57:23;9.93;;;5.95;;
78858;SDS011;68210;52.032;4.634;2024-02-15T08:59:24;15.15;;;6.95;;
78858;SDS011;68210;52.032;4.634;2024-02-15T09:01:24;11.60;;;7.15;;
78858;SDS011;68210;52.032;4.634;2024-02-15T09:03:26;14.80;;;7.20;;
78858;SDS011;68210;52.032;4.634;2024-02-15T09:05:26;13.57;;;6.32;;
78858;SDS011;68210;52.032;4.634;2024-02-15T09:07:27;14.73;;;6.78;;
78858;SDS011;68210;52.032;4.634;2024-02-15T09:09:27;10.98;;;6.07;;
78858;SDS011;68210;52.032;4.634;2024-02-15T09:11:28;10.13;;;5.50;;
78858;SDS011;68210;52.032;4.634;2024-02-15T09:13:29;8.88;;;5.47;;
78858;SDS011;68210;52.032;4.634;2024-02-15T09:15:30;13.32;;;5.65;;
78858;SDS011;68210;52.032;4.634;2024-02-15T09:17:30;10.90;;;4.53;;
78858;SDS011;68210;52.032;4.634;2024-02-15T09:19:32;9.52;;;5.55;;
78858;SDS011;68210;52.032;4.634;2024-02-15T09:21:33;11.23;;;4.85;;
78858;SDS011;68210;52.032;4.634;2024-02-15T09:23:33;11.45;;;4.55;;
78858;SDS011;68210;52.032;4.634;2024-02-15T09:25:34;9.68;;;4.47;;
78858;SDS011;68210;52.032;4.634;2024-02-15T09:27:34;13.70;;;4.80;;
78858;SDS011;68210;52.032;4.634;2024-02-15T09:29:34;10.63;;;4.18;;
78858;SDS011;68210;52.032;4.634;2024-02-15T09:31:37;12.55;;;4.40;;
78858;SDS011;68210;52.032;4.634;2024-02-15T09:37:44;10.07;;;3.90;;
78858;SDS011;68210;52.032;4.634;2024-02-15T09:39:48;12.35;;;4.57;;
78858;SDS011;68210;52.032;4.634;2024-02-15T09:41:49;7.30;;;3.42;;
78858;SDS011;68210;52.032;4.634;2024-02-15T09:43:58;7.95;;;3.70;;
78858;SDS011;68210;52.032;4.634;2024-02-15T09:45:58;10.15;;;3.55;;
78858;SDS011;68210;52.032;4.634;2024-02-15T09:47:59;7.88;;;3.85;;
78858;SDS011;68210;52.032;4.634;2024-02-15T09:50:05;11.55;;;4.45;;
78858;SDS011;68210;52.032;4.634;2024-02-15T09:52:07;8.05;;;3.55;;
78858;SDS011;68210;52.032;4.634;2024-02-15T09:54:17;8.27;;;3.80;;
78858;SDS011;68210;52.032;4.634;2024-02-15T09:56:22;10.77;;;3.80;;
78858;SDS011;68210;52.032;4.634;2024-02-15T09:58:25;9.40;;;3.95;;
78858;SDS011;68210;52.032;4.634;2024-02-15T10:00:25;8.70;;;3.70;;
78858;SDS011;68210;52.032;4.634;2024-02-15T10:02:26;10.75;;;4.07;;
78858;SDS011;68210;52.032;4.634;2024-02-15T10:04:27;11.20;;;4.55;;
78858;SDS011;68210;52.032;4.634;2024-02-15T10:06:27;7.63;;;3.58;;
78858;SDS011;68210;52.032;4.634;2024-02-15T10:08:29;9.75;;;4.25;;
78858;SDS011;68210;52.032;4.634;2024-02-15T10:10:30;10.55;;;4.20;;
78858;SDS011;68210;52.032;4.634;2024-02-15T10:12:39;8.00;;;3.78;;
78858;SDS011;68210;52.032;4.634;2024-02-15T10:14:44;9.45;;;4.20;;
78858;SDS011;68210;52.032;4.634;2024-02-15T10:16:49;10.90;;;4.30;;
78858;SDS011;68210;52.032;4.634;2024-02-15T10:18:50;8.68;;;4.25;;
78858;SDS011;68210;52.032;4.634;2024-02-15T10:20:57;9.68;;;3.95;;
78858;SDS011;68210;52.032;4.634;2024-02-15T10:25:10;10.90;;;4.23;;
78858;SDS011;68210;52.032;4.634;2024-02-15T10:27:12;8.77;;;4.50;;
78858;SDS011;68210;52.032;4.634;2024-02-15T10:29:12;7.88;;;3.88;;
78858;SDS011;68210;52.032;4.634;2024-02-15T10:31:14;10.80;;;4.63;;
78858;SDS011;68210;52.032;4.634;2024-02-15T10:33:33;8.23;;;3.55;;
78858;SDS011;68210;52.032;4.634;2024-02-15T10:35:35;12.73;;;4.60;;
78858;SDS011;68210;52.032;4.634;2024-02-15T10:37:36;9.13;;;4.78;;
78858;SDS011;68210;52.032;4.634;2024-02-15T10:39:40;10.05;;;4.65;;
78858;SDS011;68210;52.032;4.634;2024-02-15T10:41:44;7.07;;;4.18;;
78858;SDS011;68210;52.032;4.634;2024-02-15T10:43:46;11.02;;;4.47;;
78858;SDS011;68210;52.032;4.634;2024-02-15T10:45:47;9.63;;;4.45;;
78858;SDS011;68210;52.032;4.634;2024-02-15T10:47:49;10.98;;;4.88;;
78858;SDS011;68210;52.032;4.634;2024-02-15T10:49:49;11.57;;;5.03;;
78858;SDS011;68210;52.032;4.634;2024-02-15T10:52:01;9.75;;;4.65;;
78858;SDS011;68210;52.032;4.634;2024-02-15T10:54:04;8.80;;;5.30;;
78858;SDS011;68210;52.032;4.634;2024-02-15T10:58:19;8.85;;;4.82;;
78858;SDS011;68210;52.032;4.634;2024-02-15T11:00:21;9.43;;;4.90;;
78858;SDS011;68210;52.032;4.634;2024-02-15T11:04:30;7.53;;;4.20;;
78858;SDS011;68210;52.032;4.634;2024-02-15T11:06:33;8.50;;;4.15;;
78858;SDS011;68210;52.032;4.634;2024-02-15T11:08:38;10.07;;;5.38;;
78858;SDS011;68210;52.032;4.634;2024-02-15T11:10:39;12.30;;;4.32;;
78858;SDS011;68210;52.032;4.634;2024-02-15T11:12:43;7.22;;;4.70;;
78858;SDS011;68210;52.032;4.634;2024-02-15T11:14:44;7.25;;;4.05;;
78858;SDS011;68210;52.032;4.634;2024-02-15T11:16:44;7.28;;;4.30;;
78858;SDS011;68210;52.032;4.634;2024-02-15T11:18:46;9.20;;;4.45;;
78858;SDS011;68210;52.032;4.634;2024-02-15T11:20:51;8.20;;;4.05;;
78858;SDS011;68210;52.032;4.634;2024-02-15T11:22:57;9.30;;;4.20;;
78858;SDS011;68210;52.032;4.634;2024-02-15T11:24:58;7.55;;;4.70;;
78858;SDS011;68210;52.032;4.634;2024-02-15T11:26:59;8.30;;;3.88;;
78858;SDS011;68210;52.032;4.634;2024-02-15T11:29:04;9.80;;;4.93;;
78858;SDS011;68210;52.032;4.634;2024-02-15T11:31:06;7.20;;;4.25;;
78858;SDS011;68210;52.032;4.634;2024-02-15T11:35:30;6.57;;;4.28;;
78858;SDS011;68210;52.032;4.634;2024-02-15T11:39:58;9.70;;;4.53;;
78858;SDS011;68210;52.032;4.634;2024-02-15T11:44:30;6.22;;;4.22;;
78858;SDS011;68210;52.032;4.634;2024-02-15T11:46:32;7.90;;;4.13;;
78858;SDS011;68210;52.032;4.634;2024-02-15T11:48:35;7.75;;;5.10;;
78858;SDS011;68210;52.032;4.634;2024-02-15T11:50:39;6.13;;;4.05;;
78858;SDS011;68210;52.032;4.634;2024-02-15T11:52:40;6.97;;;3.55;;
78858;SDS011;68210;52.032;4.634;2024-02-15T11:54:42;7.40;;;3.90;;
78858;SDS011;68210;52.032;4.634;2024-02-15T11:56:48;5.78;;;3.55;;
78858;SDS011;68210;52.032;4.634;2024-02-15T11:59:04;8.30;;;3.45;;
78858;SDS011;68210;52.032;4.634;2024-02-15T12:01:07;4.63;;;2.25;;
78858;SDS011;68210;52.032;4.634;2024-02-15T12:03:27;5.03;;;3.33;;
78858;SDS011;68210;52.032;4.634;2024-02-15T12:05:47;9.55;;;3.25;;
78858;SDS011;68210;52.032;4.634;2024-02-15T12:08:09;6.80;;;2.45;;
78858;SDS011;68210;52.032;4.634;2024-02-15T12:10:29;4.50;;;2.47;;
78858;SDS011;68210;52.032;4.634;2024-02-15T12:12:53;4.40;;;2.42;;
78858;SDS011;68210;52.032;4.634;2024-02-15T12:15:12;4.80;;;2.60;;
78858;SDS011;68210;52.032;4.634;2024-02-15T12:17:32;6.78;;;2.72;;
78858;SDS011;68210;52.032;4.634;2024-02-15T12:19:51;7.68;;;3.30;;
78858;SDS011;68210;52.032;4.634;2024-02-15T12:21:56;7.43;;;2.88;;
78858;SDS011;68210;52.032;4.634;2024-02-15T12:23:57;6.18;;;2.80;;
78858;SDS011;68210;52.032;4.634;2024-02-15T12:25:58;6.40;;;2.80;;
78858;SDS011;68210;52.032;4.634;2024-02-15T12:28:01;5.82;;;2.67;;
78858;SDS011;68210;52.032;4.634;2024-02-15T12:30:04;8.70;;;3.25;;
78858;SDS011;68210;52.032;4.634;2024-02-15T12:32:06;7.88;;;3.35;;
78858;SDS011;68210;52.032;4.634;2024-02-15T12:34:07;5.13;;;3.03;;
78858;SDS011;68210;52.032;4.634;2024-02-15T12:36:07;6.03;;;3.20;;